Time;durP1;ratioP1;P1;durP2;ratioP2;P2;SDS_P1;SDS_P2;PMS_P1;PMS_P2;Temp;Humidity;BMP_temperature;BMP_pressure;BME280_temperature;BME280_humidity;BME280_pressure;Samples;Min_cycle;Max_cycle;Signal;HPM_P1;HPM_P2
2019/04/01 00:01:24;;;;;;;11.1;8.2;;;;;;;6.44;65.85449;939.425;;;;
2019/04/01 00:03:43;;;;;;;12.7;8.6;;;;;;;6.46;65.66602;939.3261;;;;
2019/04/01 00:06:09;;;;;;;13.3;8.5;;;;;;;6.4;65.98535;939.2879;;;;
2019/04/01 00:08:34;;;;;;;13.7;8.7;;;;;;;6.35;65.90918;939.3133;;;;
2019/04/01 00:10:59;;;;;;;13.1;8.7;;;;;;;5.99;67.50293;939.2516;;;;
2019/04/01 00:13:24;;;;;;;14.8;8.8;;;;;;;6.08;67.12207;939.2236;;;;
2019/04/01 00:15:49;;;;;;;12.3;8.7;;;;;;;5.74;68.70703;939.1728;;;;
2019/04/01 00:18:15;;;;;;;12.9;8.9;;;;;;;5.67;69.22461;939.2032;;;;
2019/04/01 00:20:40;;;;;;;13.5;9.3;;;;;;;5.74;68.9082;939.2446;;;;
2019/04/01 00:23:05;;;;;;;14.5;9.2;;;;;;;5.49;70.07715;939.1487;;;;
2019/04/01 00:25:31;;;;;;;14.6;9.1;;;;;;;5.33;70.81738;939.1097;;;;
2019/04/01 00:27:56;;;;;;;16.4;9.5;;;;;;;5.4;70.625;939.1219;;;;
2019/04/01 00:30:21;;;;;;;12.6;8.8;;;;;;;5.71;69.37695;939.0533;;;;
2019/04/01 00:32:46;;;;;;;13.9;9.4;;;;;;;5.9;68.23438;939.1487;;;;
2019/04/01 00:35:11;;;;;;;13.7;9.9;;;;;;;6.05;67.19727;939.1121;;;;
2019/04/01 00:37:37;;;;;;;14.9;9.3;;;;;;;6.19;66.72266;939.0298;;;;
2019/04/01 00:40:02;;;;;;;14;9.1;;;;;;;5.91;67.5127;939.051;;;;
2019/04/01 00:42:32;;;;;;;13.6;9.5;;;;;;;5.87;67.6543;939.0242;;;;
2019/04/01 00:44:52;;;;;;;13.6;9.3;;;;;;;5.49;69.13867;939.0309;;;;
2019/04/01 00:47:18;;;;;;;16.9;9.7;;;;;;;5.17;70.66602;938.9741;;;;
2019/04/01 00:49:43;;;;;;;13.4;9.7;;;;;;;5.17;70.74512;938.9615;;;;
2019/04/01 00:52:08;;;;;;;12.1;9;;;;;;;5.53;69.25879;939.0574;;;;
2019/04/01 00:54:34;;;;;;;14.8;9.6;;;;;;;5.22;70.45898;938.9625;;;;
2019/04/01 00:56:59;;;;;;;14.4;9.9;;;;;;;5.17;71.10645;938.9867;;;;
2019/04/01 00:59:25;;;;;;;14.7;9.4;;;;;;;4.8;72.49805;938.9794;;;;
2019/04/01 01:01:50;;;;;;;14.9;9.2;;;;;;;4.88;72.26367;938.9736;;;;
2019/04/01 01:04:15;;;;;;;14.9;9.7;;;;;;;5.44;69.85352;938.9844;;;;
2019/04/01 01:06:40;;;;;;;16.7;9.9;;;;;;;5.57;69.12891;938.9661;;;;
2019/04/01 01:09:05;;;;;;;13.1;9.3;;;;;;;5.73;68.35254;938.959;;;;
2019/04/01 01:11:31;;;;;;;14.1;9.7;;;;;;;5.76;68.15625;938.9309;;;;
2019/04/01 01:13:57;;;;;;;13.5;9.2;;;;;;;5.82;67.72461;938.9099;;;;
2019/04/01 01:16:22;;;;;;;13.5;8.8;;;;;;;5.8;67.80078;938.9027;;;;
2019/04/01 01:18:47;;;;;;;15.4;10;;;;;;;5.72;68.17188;938.8964;;;;
2019/04/01 01:21:12;;;;;;;12.9;9.6;;;;;;;5.86;67.65137;938.8611;;;;
2019/04/01 01:23:37;;;;;;;15.4;8.8;;;;;;;5.96;66.91113;938.8912;;;;
2019/04/01 01:26:03;;;;;;;16.2;9.5;;;;;;;5.84;67.37891;938.8663;;;;
2019/04/01 01:28:28;;;;;;;15;9.3;;;;;;;5.86;67.50586;938.9236;;;;
2019/04/01 01:31:01;;;;;;;13.8;8.9;;;;;;;5.9;67.17285;938.8579;;;;
2019/04/01 01:33:24;;;;;;;13.1;9.2;;;;;;;5.97;66.77734;938.8147;;;;
2019/04/01 01:35:49;;;;;;;13.4;9.7;;;;;;;5.86;67.18848;938.8738;;;;
2019/04/01 01:38:14;;;;;;;13.9;9.7;;;;;;;5.73;67.66406;938.82;;;;
2019/04/01 01:40:39;;;;;;;12.8;9.9;;;;;;;5.62;67.95313;938.7734;;;;
2019/04/01 01:43:04;;;;;;;20.7;10.2;;;;;;;5.47;68.77441;938.6875;;;;
2019/04/01 01:45:29;;;;;;;19;10;;;;;;;5.46;68.80664;938.6881;;;;
2019/04/01 01:47:55;;;;;;;12.6;9.5;;;;;;;5.32;69.5957;938.6774;;;;
2019/04/01 01:50:20;;;;;;;15.4;10.2;;;;;;;5.32;69.6543;938.6894;;;;
2019/04/01 01:52:45;;;;;;;15.7;10.2;;;;;;;5.37;69.35645;938.69;;;;
2019/04/01 01:55:10;;;;;;;15;10.1;;;;;;;5.48;69.02637;938.7242;;;;
2019/04/01 01:57:35;;;;;;;15.1;10.2;;;;;;;5.51;69.76367;938.722;;;;
2019/04/01 02:00:00;;;;;;;12.9;9.8;;;;;;;5.4;69.40723;938.7509;;;;
2019/04/01 02:02:26;;;;;;;15.8;10.6;;;;;;;5.52;68.98633;938.738;;;;
2019/04/01 02:04:51;;;;;;;13.9;9.9;;;;;;;5.42;69.55762;938.657;;;;
2019/04/01 02:07:16;;;;;;;14.2;10.2;;;;;;;5.43;69.53613;938.6944;;;;
2019/04/01 02:09:41;;;;;;;12.6;9.4;;;;;;;5.5;69.27734;938.6847;;;;
2019/04/01 02:12:06;;;;;;;15.8;9.9;;;;;;;5.42;69.89551;938.7162;;;;
2019/04/01 02:14:34;;;;;;;12.9;10;;;;;;;5.35;69.75977;938.7336;;;;
2019/04/01 02:16:59;;;;;;;14;9.7;;;;;;;5.54;69.27148;938.695;;;;
2019/04/01 02:19:24;;;;;;;15.9;10;;;;;;;5.41;69.14844;938.7047;;;;
2019/04/01 02:21:49;;;;;;;13.8;10.4;;;;;;;5.45;68.64746;938.6467;;;;
2019/04/01 02:24:14;;;;;;;13.7;9.7;;;;;;;5.55;68.24609;938.7697;;;;
2019/04/01 02:26:39;;;;;;;15.9;9.9;;;;;;;5.44;68.43164;938.7444;;;;
2019/04/01 02:29:04;;;;;;;14.8;10.6;;;;;;;5.49;68.46191;938.6818;;;;
2019/04/01 02:31:30;;;;;;;14.4;9.7;;;;;;;5.34;68.61914;938.7048;;;;
2019/04/01 02:33:56;;;;;;;14.5;10.3;;;;;;;5.15;69.26465;938.6641;;;;
2019/04/01 02:36:21;;;;;;;16.1;10.3;;;;;;;4.99;70.35352;938.6462;;;;
2019/04/01 02:38:47;;;;;;;15.9;10.8;;;;;;;4.7;71.71484;938.6417;;;;
2019/04/01 02:41:12;;;;;;;17.5;10.7;;;;;;;4.75;71.39746;938.6166;;;;
2019/04/01 02:43:37;;;;;;;15.7;10.8;;;;;;;4.59;72.18066;938.6152;;;;
2019/04/01 02:46:02;;;;;;;17.3;11.1;;;;;;;4.42;73.05273;938.6442;;;;
2019/04/01 02:48:45;;;;;;;21.9;11.7;;;;;;;4.19;74.31836;938.6935;;;;
2019/04/01 02:51:10;;;;;;;19.3;10.9;;;;;;;4.71;72.12207;938.6578;;;;
2019/04/01 02:53:38;;;;;;;17.6;11.1;;;;;;;4.59;72.2373;938.6783;;;;
2019/04/01 02:56:01;;;;;;;14.8;10.7;;;;;;;4.31;73.55176;938.6813;;;;
2019/04/01 02:58:26;;;;;;;15.4;10.7;;;;;;;4.38;73.25977;938.6088;;;;
2019/04/01 03:00:51;;;;;;;17.4;11;;;;;;;4.59;72.14746;938.6025;;;;
2019/04/01 03:03:16;;;;;;;18.2;10.8;;;;;;;4.54;72.16211;938.6018;;;;
2019/04/01 03:05:41;;;;;;;17.9;11.4;;;;;;;4.48;72.64648;938.6273;;;;
2019/04/01 03:08:06;;;;;;;15.6;10.9;;;;;;;4.26;73.2627;938.6088;;;;
2019/04/01 03:10:32;;;;;;;18.5;11.3;;;;;;;4.04;74.50586;938.5316;;;;
2019/04/01 03:12:57;;;;;;;16.5;11.2;;;;;;;4.01;74.53418;938.6049;;;;
2019/04/01 03:15:22;;;;;;;15.2;11.4;;;;;;;4.04;74.65137;938.6537;;;;
2019/04/01 03:17:47;;;;;;;18.2;11.3;;;;;;;3.94;75.10645;938.6092;;;;
2019/04/01 03:20:15;;;;;;;17;11.4;;;;;;;3.96;75.25586;938.6082;;;;
2019/04/01 03:22:37;;;;;;;19.2;11.8;;;;;;;3.92;75.32715;938.5145;;;;
2019/04/01 03:25:03;;;;;;;19.4;12.2;;;;;;;3.77;76.02051;938.5076;;;;
2019/04/01 03:27:31;;;;;;;18.5;12.3;;;;;;;3.64;76.69434;938.5497;;;;
2019/04/01 03:29:55;;;;;;;20.7;12.5;;;;;;;3.86;75.6543;938.552;;;;
2019/04/01 03:32:20;;;;;;;19;11.3;;;;;;;3.85;75.52734;938.5405;;;;
2019/04/01 03:34:45;;;;;;;18.2;11.8;;;;;;;4.13;73.76758;938.5505;;;;
2019/04/01 03:37:11;;;;;;;16.6;11.7;;;;;;;4.22;73.25488;938.502;;;;
2019/04/01 03:39:36;;;;;;;19.3;11.5;;;;;;;4.32;72.95703;938.55;;;;
2019/04/01 03:42:01;;;;;;;17.7;11.2;;;;;;;4.17;73.4248;938.5684;;;;
2019/04/01 03:44:26;;;;;;;15.4;11.4;;;;;;;3.79;75.11328;938.5358;;;;
2019/04/01 03:46:51;;;;;;;19;12.2;;;;;;;3.5;76.58984;938.5631;;;;
2019/04/01 03:49:16;;;;;;;15.8;11.5;;;;;;;3.38;77.33105;938.5419;;;;
2019/04/01 03:51:41;;;;;;;17;11.7;;;;;;;3.85;75.37207;938.5903;;;;
2019/04/01 03:54:06;;;;;;;17.6;11.2;;;;;;;4.14;73.67969;938.6422;;;;
2019/04/01 03:56:31;;;;;;;16.9;11.6;;;;;;;4.14;73.72461;938.5706;;;;
2019/04/01 03:58:56;;;;;;;19;11.4;;;;;;;4.15;73.43164;938.5999;;;;
2019/04/01 04:02:31;;;;;;;20.7;11.7;;;;;;;4.13;73.4082;938.5041;;;;
2019/04/01 04:04:56;;;;;;;16.9;11.6;;;;;;;4.1;73.41406;938.5062;;;;
2019/04/01 04:07:22;;;;;;;17;11.3;;;;;;;4.12;73.12305;938.5681;;;;
2019/04/01 04:09:49;;;;;;;25.1;12;;;;;;;3.75;75.14063;938.5636;;;;
2019/04/01 04:12:12;;;;;;;21.9;12;;;;;;;3.79;75.32813;938.6108;;;;
2019/04/01 04:14:37;;;;;;;16.8;11.8;;;;;;;3.94;74.4541;938.6305;;;;
2019/04/01 04:17:02;;;;;;;16.2;11.5;;;;;;;4.16;73.11035;938.6028;;;;
2019/04/01 04:19:27;;;;;;;18.7;11.2;;;;;;;4.14;73.24023;938.6085;;;;
2019/04/01 04:21:52;;;;;;;16.4;11.5;;;;;;;4.16;73.27734;938.5908;;;;
2019/04/01 04:24:18;;;;;;;15.8;11.2;;;;;;;4.37;72.14258;938.6351;;;;
2019/04/01 04:26:42;;;;;;;19.3;11;;;;;;;4.21;72.62305;938.6206;;;;
2019/04/01 04:29:08;;;;;;;21.6;12.3;;;;;;;4.31;72.00977;938.6222;;;;
2019/04/01 04:31:33;;;;;;;18.2;11.4;;;;;;;4.23;72.18555;938.7037;;;;
2019/04/01 04:33:58;;;;;;;17.4;11.8;;;;;;;4.38;71.32227;938.6678;;;;
2019/04/01 04:36:23;;;;;;;15.3;11.8;;;;;;;4.49;70.80176;938.656;;;;
2019/04/01 04:38:48;;;;;;;15.5;11.8;;;;;;;4.56;70.44238;938.634;;;;
2019/04/01 04:41:13;;;;;;;29.6;12.6;;;;;;;4.43;71.4668;938.6517;;;;
2019/04/01 04:43:39;;;;;;;21.8;11.6;;;;;;;4.31;71.80762;938.597;;;;
2019/04/01 04:46:04;;;;;;;19.2;11.9;;;;;;;4.31;71.66113;938.6686;;;;
2019/04/01 04:48:29;;;;;;;22.2;12;;;;;;;4.18;72.23633;938.6602;;;;
2019/04/01 04:50:54;;;;;;;22;12.1;;;;;;;4.1;72.71582;938.7125;;;;
2019/04/01 04:53:19;;;;;;;22.1;11.7;;;;;;;3.94;73.63184;938.6138;;;;
2019/04/01 04:55:45;;;;;;;20.2;11.8;;;;;;;3.76;74.40039;938.7057;;;;
2019/04/01 04:58:10;;;;;;;18.2;12.4;;;;;;;3.75;74.7041;938.7101;;;;
2019/04/01 05:00:35;;;;;;;17.3;11.3;;;;;;;3.84;73.97656;938.7214;;;;
2019/04/01 05:03:01;;;;;;;19.9;12.5;;;;;;;3.54;75.06836;938.6951;;;;
2019/04/01 05:05:27;;;;;;;24.6;12.1;;;;;;;3.14;77.16406;938.7001;;;;
2019/04/01 05:07:52;;;;;;;19.2;12.5;;;;;;;3.02;77.71582;938.7076;;;;
2019/04/01 05:10:17;;;;;;;19.7;12.6;;;;;;;2.98;77.90918;938.6892;;;;
2019/04/01 05:12:43;;;;;;;19.2;12;;;;;;;2.84;78.6582;938.7444;;;;
2019/04/01 05:15:08;;;;;;;22.5;12.2;;;;;;;2.89;78.5;938.7827;;;;
2019/04/01 05:17:33;;;;;;;21.1;12.5;;;;;;;3.27;76.92969;938.7549;;;;
2019/04/01 05:20:10;;;;;;;18.3;11.9;;;;;;;3.04;77.50586;938.7863;;;;
2019/04/01 05:22:35;;;;;;;24;12.5;;;;;;;2.8;78.86426;938.7761;;;;
2019/04/01 05:25:00;;;;;;;22.7;12.7;;;;;;;2.74;79.25586;938.7631;;;;
2019/04/01 05:27:25;;;;;;;21.3;12.6;;;;;;;2.72;79.75586;938.7938;;;;
2019/04/01 05:29:50;;;;;;;25.8;13.6;;;;;;;2.77;79.55273;938.7988;;;;
2019/04/01 05:32:15;;;;;;;23.3;14.8;;;;;;;2.71;79.74414;938.7061;;;;
2019/04/01 05:34:40;;;;;;;25;14;;;;;;;2.89;79.00488;938.6992;;;;
2019/04/01 05:37:05;;;;;;;23.8;13.4;;;;;;;2.92;78.63965;938.6972;;;;
2019/04/01 05:39:31;;;;;;;18.6;13.3;;;;;;;2.92;78.80566;938.668;;;;
2019/04/01 05:41:56;;;;;;;23.5;13.9;;;;;;;2.89;79.15039;938.6992;;;;
2019/04/01 05:44:22;;;;;;;35.3;14.2;;;;;;;3.07;78.52051;938.6795;;;;
2019/04/01 05:46:47;;;;;;;26;14.2;;;;;;;3.16;78.44727;938.6696;;;;
2019/04/01 05:49:12;;;;;;;24.5;13.8;;;;;;;3.39;77.35449;938.6295;;;;
2019/04/01 05:51:37;;;;;;;23.5;13.3;;;;;;;3.78;76.16797;938.6789;;;;
2019/04/01 05:54:02;;;;;;;27.3;12.2;;;;;;;4.43;73.15527;938.6139;;;;
2019/04/01 05:56:27;;;;;;;28.5;11.9;;;;;;;5.08;70.50488;938.6106;;;;
2019/04/01 05:58:52;;;;;;;28.4;11.3;;;;;;;5.97;67.14844;938.6802;;;;
2019/04/01 06:01:25;;;;;;;17.9;11.1;;;;;;;6.5;64.76758;938.7363;;;;
2019/04/01 06:03:43;;;;;;;20.5;11.2;;;;;;;7.05;62.6416;938.6428;;;;
2019/04/01 06:06:11;;;;;;;27.4;11.4;;;;;;;7.81;60.04102;938.6152;;;;
2019/04/01 06:08:36;;;;;;;16.4;9.9;;;;;;;8.38;57.63281;938.5675;;;;
2019/04/01 06:10:59;;;;;;;18.9;9.8;;;;;;;8.81;56.42773;938.5653;;;;
2019/04/01 06:13:24;;;;;;;21;9.9;;;;;;;9.36;54.65527;938.5639;;;;
2019/04/01 06:15:49;;;;;;;18.1;9.3;;;;;;;9.55;53.83496;938.5725;;;;
2019/04/01 06:18:14;;;;;;;22.4;9.5;;;;;;;9.56;53.54102;938.5377;;;;
2019/04/01 06:20:40;;;;;;;18.2;9.3;;;;;;;9.69;53.05664;938.5595;;;;
2019/04/01 06:23:05;;;;;;;19.6;9.6;;;;;;;9.79;52.83008;938.5211;;;;
2019/04/01 06:25:31;;;;;;;17.1;9.5;;;;;;;9.45;53.72168;938.56;;;;
2019/04/01 06:27:56;;;;;;;17.8;9.7;;;;;;;9.31;54.86621;938.538;;;;
2019/04/01 06:30:21;;;;;;;19.5;9.6;;;;;;;10.02;52.50488;938.5762;;;;
2019/04/01 06:32:46;;;;;;;13.6;9.3;;;;;;;10.79;50.75781;938.4586;;;;
2019/04/01 06:35:12;;;;;;;18.7;9;;;;;;;11.19;49.27344;938.3947;;;;
2019/04/01 06:37:37;;;;;;;16.1;9.1;;;;;;;10.24;51.24121;938.4766;;;;
2019/04/01 06:40:04;;;;;;;21.2;9.7;;;;;;;10.85;50.51367;938.4069;;;;
2019/04/01 06:42:29;;;;;;;17;8.9;;;;;;;11.67;47.9541;938.3571;;;;
2019/04/01 06:44:54;;;;;;;18.2;9.2;;;;;;;11.48;48.25293;938.2991;;;;
2019/04/01 06:47:20;;;;;;;29.3;10.7;;;;;;;11.62;48.41699;938.3369;;;;
2019/04/01 06:49:48;;;;;;;15.3;9.2;;;;;;;11.48;47.65723;938.3421;;;;
2019/04/01 06:52:10;;;;;;;23.8;9.2;;;;;;;11.63;47.94922;938.3656;;;;
2019/04/01 06:54:36;;;;;;;17.2;8.1;;;;;;;11.95;46.89746;938.3293;;;;
2019/04/01 06:57:01;;;;;;;15.8;8.1;;;;;;;11.66;47.32227;938.2438;;;;
2019/04/01 06:59:26;;;;;;;18;8.3;;;;;;;11.53;47.37793;938.2555;;;;
2019/04/01 07:01:51;;;;;;;12.1;8.3;;;;;;;12.17;46.33594;938.269;;;;
2019/04/01 07:04:16;;;;;;;14.5;8.5;;;;;;;12.94;44.30469;938.2172;;;;
2019/04/01 07:06:41;;;;;;;15.5;8.6;;;;;;;13.2;44.48047;938.1689;;;;
2019/04/01 07:09:07;;;;;;;16.1;8.2;;;;;;;14.78;40.59668;938.1486;;;;
2019/04/01 07:11:32;;;;;;;15.2;8;;;;;;;14.71;39.4834;938.1867;;;;
2019/04/01 07:13:57;;;;;;;14.1;8;;;;;;;13.49;42.25684;938.1731;;;;
2019/04/01 07:16:22;;;;;;;14.8;8.5;;;;;;;14.3;40.82715;938.1547;;;;
2019/04/01 07:18:47;;;;;;;12.6;7.8;;;;;;;14.42;39.7334;938.111;;;;
2019/04/01 07:21:12;;;;;;;9.9;7.1;;;;;;;13.98;40.93555;938.1714;;;;
2019/04/01 07:23:38;;;;;;;15.9;7.4;;;;;;;16.23;37.43262;938.105;;;;
2019/04/01 07:26:03;;;;;;;11;7;;;;;;;16.49;37.08496;938.1775;;;;
2019/04/01 07:28:34;;;;;;;11;6.6;;;;;;;17.9;34.3252;938.1066;;;;
2019/04/01 07:31:00;;;;;;;9.5;6.5;;;;;;;17.7;34.37891;938.1526;;;;
2019/04/01 07:33:25;;;;;;;9.6;6.5;;;;;;;18.28;31.25195;938.1754;;;;
2019/04/01 07:36:10;;;;;;;30.8;8.6;;;;;;;17.3;38.02344;938.1926;;;;
2019/04/01 07:38:26;;;;;;;16.3;8.2;;;;;;;17.02;37.24707;938.1227;;;;
2019/04/01 07:40:51;;;;;;;19.8;8.4;;;;;;;16.48;39.12109;938.1785;;;;
2019/04/01 07:43:16;;;;;;;24;8.5;;;;;;;16.48;39.17969;938.1398;;;;
2019/04/01 07:45:41;;;;;;;18.1;8.8;;;;;;;16.54;39.11621;938.1495;;;;
2019/04/01 07:48:06;;;;;;;14.5;8.3;;;;;;;16.96;37.40234;938.1603;;;;
2019/04/01 07:50:32;;;;;;;15;8.4;;;;;;;17.18;36.77246;938.1983;;;;
2019/04/01 07:52:57;;;;;;;12.4;7.9;;;;;;;18.34;34.92871;938.2242;;;;
2019/04/01 07:55:31;;;;;;;19.3;8;;;;;;;19.74;31.78613;938.1839;;;;
2019/04/01 07:57:56;;;;;;;18.3;7.6;;;;;;;21.04;29.07324;938.1361;;;;
2019/04/01 08:00:21;;;;;;;11.9;7.7;;;;;;;20.04;30.94434;938.1361;;;;
2019/04/01 08:02:46;;;;;;;13;7.4;;;;;;;20.52;30.1377;938.1671;;;;
2019/04/01 08:05:12;;;;;;;13.4;7.5;;;;;;;20.83;29.24609;938.1431;;;;
2019/04/01 08:07:37;;;;;;;10.3;7.9;;;;;;;21.36;29.33984;938.0925;;;;
2019/04/01 08:10:02;;;;;;;10.8;7.3;;;;;;;21.87;27.5459;938.0869;;;;
2019/04/01 08:12:27;;;;;;;8.9;7.1;;;;;;;20.36;29.42578;938.1362;;;;
2019/04/01 08:14:52;;;;;;;13.6;7.4;;;;;;;20.47;30.32031;938.0358;;;;
2019/04/01 08:17:19;;;;;;;9.3;6.9;;;;;;;20.02;30.32422;938.0781;;;;
2019/04/01 08:19:43;;;;;;;12.8;7.5;;;;;;;21.29;28.49219;938.0253;;;;
2019/04/01 08:22:09;;;;;;;11.6;6.8;;;;;;;20.91;28.1416;938.063;;;;
2019/04/01 08:24:34;;;;;;;13.5;7;;;;;;;22.59;26.18262;938.064;;;;
2019/04/01 08:27:01;;;;;;;9.3;6.8;;;;;;;23.15;24.91113;937.9625;;;;
2019/04/01 08:29:24;;;;;;;10.4;6.7;;;;;;;21.6;27.51758;938.0081;;;;
2019/04/01 08:31:50;;;;;;;11.4;7;;;;;;;21.47;27.61523;937.9692;;;;
2019/04/01 08:34:15;;;;;;;9.6;7;;;;;;;19.26;30.69141;937.9836;;;;
2019/04/01 08:36:41;;;;;;;10.3;6.8;;;;;;;21.8;27.07324;937.9666;;;;
2019/04/01 08:39:06;;;;;;;9.1;6.4;;;;;;;22.39;26.6748;937.9713;;;;
2019/04/01 08:41:31;;;;;;;8.5;6.7;;;;;;;21.24;28.60742;937.884;;;;
2019/04/01 08:43:56;;;;;;;18.7;6.3;;;;;;;22.75;25.41699;937.9542;;;;
2019/04/01 08:46:21;;;;;;;8.8;6.4;;;;;;;23.99;24.56934;937.8789;;;;
2019/04/01 08:48:46;;;;;;;7.7;6.5;;;;;;;24.15;24.11914;937.8761;;;;
2019/04/01 08:51:12;;;;;;;7.9;6.7;;;;;;;21.16;27.68848;937.939;;;;
2019/04/01 08:53:37;;;;;;;8.2;6.4;;;;;;;22.41;25.90234;937.8992;;;;
2019/04/01 08:56:02;;;;;;;7.2;6.1;;;;;;;22.32;25.66211;937.9163;;;;
2019/04/01 08:58:27;;;;;;;10.9;7.1;;;;;;;21.98;26.75586;937.8981;;;;
2019/04/01 09:00:52;;;;;;;7.7;6.6;;;;;;;22.85;25.1416;937.8535;;;;
2019/04/01 09:03:17;;;;;;;9.4;6.8;;;;;;;23.09;24.9082;937.8453;;;;
2019/04/01 09:05:42;;;;;;;9.2;7.1;;;;;;;21.71;27.2666;937.8237;;;;
2019/04/01 09:08:08;;;;;;;9.3;7.7;;;;;;;21.4;28.47656;937.8579;;;;
2019/04/01 09:10:33;;;;;;;7.9;7.1;;;;;;;22.68;25.68262;937.8354;;;;
2019/04/01 09:12:58;;;;;;;9.5;7.3;;;;;;;23.58;24.80566;937.7874;;;;
2019/04/01 09:15:24;;;;;;;15.7;8.2;;;;;;;22.74;26.35547;937.7615;;;;
2019/04/01 09:17:49;;;;;;;9.9;8;;;;;;;22.42;27.46289;937.8411;;;;
2019/04/01 09:20:14;;;;;;;15.2;9.2;;;;;;;22.49;27.33789;937.7406;;;;
2019/04/01 09:22:39;;;;;;;12;9.2;;;;;;;20.67;31.07129;937.8061;;;;
2019/04/01 09:25:04;;;;;;;10.9;9;;;;;;;20.6;31.25195;937.7514;;;;
2019/04/01 09:27:29;;;;;;;14.5;9.6;;;;;;;19.95;32.16309;937.7639;;;;
2019/04/01 09:29:54;;;;;;;12.2;10;;;;;;;20.15;32.25977;937.8153;;;;
2019/04/01 09:32:20;;;;;;;13.8;10.1;;;;;;;19.94;32.30273;937.6873;;;;
2019/04/01 09:34:45;;;;;;;12.9;9.5;;;;;;;19.68;32.58691;937.7991;;;;
2019/04/01 09:37:11;;;;;;;11.9;9.5;;;;;;;19.12;34.25684;937.6782;;;;
2019/04/01 09:39:35;;;;;;;13.3;9.8;;;;;;;19.41;34.13965;937.6833;;;;
2019/04/01 09:42:00;;;;;;;14.2;10.6;;;;;;;19.78;32.65234;937.6229;;;;
2019/04/01 09:44:25;;;;;;;14.1;10.2;;;;;;;20.34;32.62402;937.5829;;;;
2019/04/01 09:46:50;;;;;;;12.2;10.1;;;;;;;20.71;31.02637;937.5598;;;;
2019/04/01 09:49:16;;;;;;;12.9;10.2;;;;;;;21.3;30.14355;937.5137;;;;
2019/04/01 09:51:41;;;;;;;13.4;9.9;;;;;;;20.52;31.09473;937.4989;;;;
2019/04/01 09:54:06;;;;;;;12.6;10.1;;;;;;;20.95;31.74512;937.5008;;;;
2019/04/01 09:56:31;;;;;;;12.6;9.7;;;;;;;21.54;30.18359;937.4969;;;;
2019/04/01 11:09:38;;;;;;;12.6;9.4;;;;;;;23.36;27.9209;936.8652;;;;
2019/04/01 11:12:03;;;;;;;17;11.8;;;;;;;23.4;28.34668;936.8375;;;;
2019/04/01 11:14:28;;;;;;;13.7;10.5;;;;;;;22.77;28.9873;936.7648;;;;
2019/04/01 11:16:53;;;;;;;13.5;10.6;;;;;;;21.44;31.79102;936.7341;;;;
2019/04/01 11:19:18;;;;;;;17.5;10.9;;;;;;;21.84;30.06348;936.7601;;;;
2019/04/01 11:21:43;;;;;;;14.3;10.6;;;;;;;22.52;29.28809;936.7144;;;;
2019/04/01 11:24:08;;;;;;;15.4;10.6;;;;;;;23.08;28.85449;936.7728;;;;
2019/04/01 11:26:33;;;;;;;12.9;10.8;;;;;;;23.46;28.99707;936.7207;;;;
2019/04/01 11:28:58;;;;;;;14.7;10.8;;;;;;;23.97;27.64063;936.6838;;;;
2019/04/01 11:31:24;;;;;;;15.3;10.8;;;;;;;23.25;28.38379;936.6833;;;;
2019/04/01 11:33:50;;;;;;;13.2;10.4;;;;;;;24.86;25.98535;936.6449;;;;
2019/04/01 11:36:15;;;;;;;16.9;11;;;;;;;23.87;27.02246;936.5386;;;;
2019/04/01 11:38:40;;;;;;;16.5;11.2;;;;;;;23.63;28.90234;936.5701;;;;
2019/04/01 11:41:06;;;;;;;14.4;11.4;;;;;;;23.29;28.84473;936.6635;;;;
2019/04/01 11:43:31;;;;;;;13.4;11.1;;;;;;;25.44;24.60254;936.5594;;;;
2019/04/01 11:45:56;;;;;;;15.8;11;;;;;;;26.48;23.53516;936.5222;;;;
2019/04/01 11:48:21;;;;;;;14.7;10.7;;;;;;;27.6;22.31152;936.4966;;;;
2019/04/01 11:50:46;;;;;;;17.5;10.9;;;;;;;26.8;22.50879;936.5396;;;;
2019/04/01 11:53:11;;;;;;;15.3;10.6;;;;;;;26.44;23.30762;936.497;;;;
2019/04/01 11:55:36;;;;;;;15.5;10.9;;;;;;;27.52;23.2334;936.3875;;;;
2019/04/01 11:58:01;;;;;;;17.4;11.3;;;;;;;26.1;23.89355;936.3726;;;;
2019/04/01 12:00:26;;;;;;;14.5;11.3;;;;;;;27.61;21.55176;936.3906;;;;
2019/04/01 12:02:53;;;;;;;18.7;12.3;;;;;;;25.69;24.8877;936.3113;;;;
2019/04/01 12:05:17;;;;;;;17.1;12.8;;;;;;;25.5;25.05469;936.2939;;;;
2019/04/01 12:07:42;;;;;;;16.1;12.1;;;;;;;27;22.70898;936.2148;;;;
2019/04/01 12:10:07;;;;;;;17.6;12.9;;;;;;;27.44;23.20605;936.2431;;;;
2019/04/01 12:12:35;;;;;;;15.9;12.8;;;;;;;26.86;23.44824;936.1415;;;;
2019/04/01 12:14:58;;;;;;;19.5;12.9;;;;;;;26.94;24.05664;936.1905;;;;
2019/04/01 12:17:23;;;;;;;14.9;12.9;;;;;;;27.15;23.17871;936.1428;;;;
2019/04/01 12:19:48;;;;;;;17;13.1;;;;;;;27.34;22.77344;936.0853;;;;
2019/04/01 12:22:13;;;;;;;18.3;14.4;;;;;;;25.46;26.18652;935.9869;;;;
2019/04/01 12:24:38;;;;;;;16.2;13.7;;;;;;;26.37;25.0918;936.0949;;;;
2019/04/01 12:27:03;;;;;;;17.3;13.7;;;;;;;25.48;26.55371;936.0275;;;;
2019/04/01 12:29:28;;;;;;;20.2;14.3;;;;;;;25.54;25.49316;936.0048;;;;
2019/04/01 12:31:54;;;;;;;16;13.8;;;;;;;27.59;23.27246;935.9127;;;;
2019/04/01 12:34:19;;;;;;;16.5;13.3;;;;;;;27.77;22.2373;935.8969;;;;
2019/04/01 12:36:44;;;;;;;15.8;13.5;;;;;;;27.18;23.0498;935.9534;;;;
2019/04/01 12:39:09;;;;;;;18.3;14.3;;;;;;;27.7;23.34961;935.9033;;;;
2019/04/01 12:41:34;;;;;;;18.7;13.9;;;;;;;27.22;23.69238;935.8044;;;;
2019/04/01 12:43:59;;;;;;;16.9;13.9;;;;;;;26.56;24.08398;935.7767;;;;
2019/04/01 12:46:24;;;;;;;19.4;13.8;;;;;;;28.41;21.99512;935.8063;;;;
2019/04/01 12:48:49;;;;;;;16.2;14.2;;;;;;;27.94;23.46875;935.785;;;;
2019/04/01 12:51:14;;;;;;;21.1;14;;;;;;;27.89;22.44531;935.8072;;;;
2019/04/01 12:53:40;;;;;;;18.9;14.2;;;;;;;27.01;23.44434;935.765;;;;
2019/04/01 12:56:05;;;;;;;18.8;14.8;;;;;;;26.36;24.65234;935.7355;;;;
2019/04/01 12:58:30;;;;;;;20.6;15;;;;;;;26.25;25.08398;935.7095;;;;
2019/04/01 13:00:55;;;;;;;19;15.1;;;;;;;26.32;24.66211;935.65;;;;
2019/04/01 13:03:20;;;;;;;20;15.6;;;;;;;25.14;26.52148;935.6809;;;;
2019/04/01 13:05:45;;;;;;;17.8;15.8;;;;;;;26.25;25.12012;935.618;;;;
2019/04/01 13:08:12;;;;;;;21.3;15.8;;;;;;;26.03;25.62793;935.6354;;;;
2019/04/01 13:10:35;;;;;;;18.8;15.8;;;;;;;26.95;24.02148;935.6479;;;;
2019/04/01 13:13:01;;;;;;;19.6;15.8;;;;;;;26.44;24.37305;935.5575;;;;
2019/04/01 13:15:26;;;;;;;19.8;15.7;;;;;;;26.89;24.04199;935.6267;;;;
2019/04/01 13:17:51;;;;;;;19.4;15.5;;;;;;;26.67;25.04883;935.5321;;;;
2019/04/01 13:20:16;;;;;;;19;16.5;;;;;;;27.05;24.31152;935.5485;;;;
2019/04/01 13:22:42;;;;;;;21.7;18;;;;;;;25.42;26.30176;935.51;;;;
2019/04/01 13:25:10;;;;;;;21.7;17.7;;;;;;;24.89;27.94629;935.4632;;;;
2019/04/01 13:27:32;;;;;;;18.3;16.1;;;;;;;25.88;25.83301;935.5711;;;;
2019/04/01 13:29:57;;;;;;;20.2;17.3;;;;;;;25.45;26.76465;935.5184;;;;
2019/04/01 13:32:23;;;;;;;20.7;17.9;;;;;;;24.39;28.35059;935.4406;;;;
2019/04/01 13:34:48;;;;;;;23.3;17.5;;;;;;;24.64;27.88281;935.5062;;;;
2019/04/01 13:37:13;;;;;;;27.6;17.8;;;;;;;23.55;29.86133;935.5115;;;;
2019/04/01 13:39:38;;;;;;;24.2;18.1;;;;;;;23.64;29.47949;935.4542;;;;
2019/04/01 13:42:04;;;;;;;21.4;18.3;;;;;;;22.7;31.83496;935.3862;;;;
2019/04/01 13:44:32;;;;;;;20.8;17.9;;;;;;;23.11;30.76074;935.4465;;;;
2019/04/01 13:46:54;;;;;;;22.7;18.8;;;;;;;22.28;32.6377;935.3176;;;;
2019/04/01 13:49:20;;;;;;;24.4;18.7;;;;;;;22.2;33.21875;935.3766;;;;
2019/04/01 13:51:45;;;;;;;27.6;18.1;;;;;;;22.4;31.7666;935.3427;;;;
2019/04/01 13:54:11;;;;;;;32.6;19.2;;;;;;;21.75;33.13672;935.3204;;;;
2019/04/01 13:56:36;;;;;;;25.6;19.8;;;;;;;21.15;34.47363;935.3606;;;;
2019/04/01 13:59:01;;;;;;;23.8;19.6;;;;;;;20.53;35.69824;935.2108;;;;
2019/04/01 14:01:26;;;;;;;21.1;18.8;;;;;;;20.36;37.13281;935.363;;;;
2019/04/01 14:03:51;;;;;;;27.3;19.5;;;;;;;20.18;36.69824;935.2836;;;;
2019/04/01 14:06:17;;;;;;;29.3;21.4;;;;;;;19.37;39.31055;935.2076;;;;
2019/04/01 14:08:42;;;;;;;27;20.1;;;;;;;19.14;38.5791;935.1876;;;;
2019/04/01 14:11:10;;;;;;;24.9;20.1;;;;;;;19.27;39.33594;935.1953;;;;
2019/04/01 14:13:36;;;;;;;27.3;21.4;;;;;;;18.79;40.50293;935.2209;;;;
2019/04/01 14:16:04;;;;;;;28.4;21.4;;;;;;;18.47;41.05566;935.1584;;;;
2019/04/01 14:18:26;;;;;;;25.9;20.2;;;;;;;18.42;40.46875;935.187;;;;
2019/04/01 14:20:51;;;;;;;24.7;20.9;;;;;;;18.26;42.39453;935.1822;;;;
2019/04/01 14:23:16;;;;;;;27.7;21.7;;;;;;;18.4;41.7002;935.1672;;;;
2019/04/01 14:25:41;;;;;;;27.6;21.6;;;;;;;18.25;41.69727;935.1019;;;;
2019/04/01 14:28:07;;;;;;;44.5;21.7;;;;;;;18.49;41.51074;935.1822;;;;
2019/04/01 14:30:32;;;;;;;28;21.2;;;;;;;18.37;40.69824;935.1841;;;;
2019/04/01 14:32:57;;;;;;;32.8;22.2;;;;;;;18.36;41.45117;935.2079;;;;
2019/04/01 14:35:22;;;;;;;29.9;21.7;;;;;;;18.2;41.62207;935.1552;;;;
2019/04/01 14:37:47;;;;;;;27.3;21.4;;;;;;;18.36;41.5791;935.1821;;;;
2019/04/01 14:40:12;;;;;;;30.1;21.8;;;;;;;18.54;40.82813;935.2358;;;;
2019/04/01 14:42:37;;;;;;;29.4;21.6;;;;;;;17.97;43.38965;935.1548;;;;
2019/04/01 14:45:03;;;;;;;28.9;21.9;;;;;;;18;42.34668;935.1509;;;;
2019/04/01 14:47:28;;;;;;;26.2;21.5;;;;;;;17.95;42.40039;935.1618;;;;
2019/04/01 14:49:53;;;;;;;34.6;22.3;;;;;;;17.83;42.8877;935.1816;;;;
2019/04/01 14:52:18;;;;;;;26.4;21.9;;;;;;;18.04;42.06055;935.171;;;;
2019/04/01 14:54:44;;;;;;;28.8;22.6;;;;;;;17.95;42.55078;935.1489;;;;
2019/04/01 14:57:12;;;;;;;28.8;22.2;;;;;;;18.03;42.93066;935.1472;;;;
2019/04/01 14:59:35;;;;;;;31;22.1;;;;;;;18.1;41.87988;935.1383;;;;
2019/04/01 15:02:00;;;;;;;26.5;22.9;;;;;;;18.01;42.37109;935.1578;;;;
2019/04/01 15:04:25;;;;;;;27.1;22;;;;;;;17.65;43.38086;935.1569;;;;
2019/04/01 15:06:50;;;;;;;26;22.1;;;;;;;17.63;43.2627;935.1331;;;;
2019/04/01 15:09:16;;;;;;;24.9;21.7;;;;;;;17.39;45.04883;935.1597;;;;
2019/04/01 15:11:42;;;;;;;27.9;23;;;;;;;17.49;43.37598;935.1167;;;;
2019/04/01 15:14:07;;;;;;;24.5;21.8;;;;;;;17.32;43.51074;935.1635;;;;